createdAt,value
2023-01-03T00:01:24.776Z,17.75
2023-01-03T00:03:58.352Z,15.30
2023-01-03T00:06:34.107Z,13.93
2023-01-03T00:09:08.223Z,19.45
2023-01-03T00:12:08.273Z,21.52
2023-01-03T00:14:38.914Z,17.48
2023-01-03T00:17:07.925Z,19.05
2023-01-03T00:19:45.133Z,18.73
2023-01-03T00:22:14.806Z,16.52
2023-01-03T00:24:44.869Z,17.90
2023-01-03T00:27:14.954Z,18.73
2023-01-03T00:29:45.216Z,19.73
2023-01-03T00:32:14.804Z,16.15
2023-01-03T00:34:45.541Z,20.50
2023-01-03T00:37:20.560Z,17.15
2023-01-03T00:39:49.139Z,14.75
2023-01-03T00:42:16.375Z,19.42
2023-01-03T00:44:43.205Z,16.83
2023-01-03T00:47:10.611Z,18.48
2023-01-03T00:49:38.321Z,18.52
2023-01-03T00:52:05.505Z,17.88
2023-01-03T00:54:36.653Z,14.63
2023-01-03T00:57:04.021Z,20.80
2023-01-03T00:59:31.029Z,17.88
2023-01-03T01:01:58.881Z,16.30
2023-01-03T01:04:30.686Z,15.30
2023-01-03T01:07:01.613Z,17.33
2023-01-03T01:09:31.952Z,16.92
2023-01-03T01:12:00.022Z,20.02
2023-01-03T01:14:30.843Z,17.63
2023-01-03T01:17:00.967Z,24.77
2023-01-03T01:19:40.449Z,20.13
2023-01-03T01:22:10.133Z,17.42
2023-01-03T01:24:37.528Z,20.33
2023-01-03T01:27:04.715Z,21.95
2023-01-03T01:29:31.608Z,21.73
2023-01-03T01:32:01.173Z,17.45
2023-01-03T01:34:28.013Z,19.90
2023-01-03T01:36:54.988Z,22.75
2023-01-03T01:39:30.326Z,18.67
2023-01-03T01:42:22.331Z,24.73
2023-01-03T01:44:59.920Z,16.95
2023-01-03T01:47:39.795Z,18.27
2023-01-03T01:50:32.007Z,16.23
2023-01-03T01:55:45.473Z,17.92
2023-01-03T01:58:14.674Z,13.82
2023-01-03T02:00:44.296Z,19.65
2023-01-03T02:03:15.068Z,19.38
2023-01-03T02:05:47.145Z,17.33
2023-01-03T02:08:17.065Z,23.48
2023-01-03T02:11:13.115Z,15.48
2023-01-03T02:13:48.382Z,15.43
2023-01-03T02:16:46.111Z,16.98
2023-01-03T02:19:46.972Z,22.48
2023-01-03T02:22:43.746Z,17.10
2023-01-03T02:25:28.669Z,18.95
2023-01-03T02:28:14.076Z,21.75
2023-01-03T02:31:02.800Z,15.40
2023-01-03T02:33:39.926Z,17.05
2023-01-03T02:36:35.818Z,19.17
2023-01-03T02:39:23.777Z,22.58
2023-01-03T02:42:18.044Z,20.70
2023-01-03T02:45:14.916Z,22.33
2023-01-03T02:47:53.135Z,26.13
2023-01-03T02:50:27.865Z,23.02
2023-01-03T02:52:59.676Z,30.08
2023-01-03T02:55:30.929Z,23.02
2023-01-03T02:58:07.096Z,18.45
2023-01-03T03:00:39.495Z,16.20
2023-01-03T03:03:12.053Z,21.58
2023-01-03T03:06:03.377Z,22.08
2023-01-03T03:08:30.291Z,18.23
2023-01-03T03:11:15.830Z,18.15
2023-01-03T03:13:50.747Z,19.73
2023-01-03T03:16:40.855Z,21.95
2023-01-03T03:19:35.666Z,17.05
2023-01-03T03:22:25.714Z,19.98
2023-01-03T03:24:55.954Z,21.33
2023-01-03T03:27:43.146Z,15.40
2023-01-03T03:30:14.692Z,19.27
2023-01-03T03:32:48.376Z,21.70
2023-01-03T03:35:20.443Z,21.08
2023-01-03T03:37:50.181Z,16.15
2023-01-03T03:40:35.438Z,16.73
2023-01-03T03:43:34.366Z,18.80
2023-01-03T03:46:09.814Z,18.30
2023-01-03T03:49:04.593Z,15.00
2023-01-03T03:51:34.944Z,15.93
2023-01-03T03:54:08.617Z,21.02
2023-01-03T03:59:11.758Z,14.65
2023-01-03T04:01:41.688Z,19.88
2023-01-03T04:04:22.707Z,18.92
2023-01-03T04:06:52.064Z,16.23
2023-01-03T04:09:19.401Z,19.38
2023-01-03T04:11:46.314Z,13.00
2023-01-03T04:14:16.048Z,18.60
2023-01-03T04:16:42.846Z,18.25
2023-01-03T04:19:12.873Z,17.98
2023-01-03T04:21:39.920Z,22.52
2023-01-03T04:24:07.184Z,18.10
2023-01-03T04:26:34.022Z,17.45
2023-01-03T04:29:03.029Z,16.08
2023-01-03T04:31:30.128Z,20.23
2023-01-03T04:33:58.104Z,18.05
2023-01-03T04:36:25.002Z,17.00
2023-01-03T04:38:51.777Z,23.88
2023-01-03T04:41:21.710Z,15.13
2023-01-03T04:44:04.785Z,19.00
2023-01-03T04:46:37.711Z,18.92
2023-01-03T04:49:07.368Z,22.65
2023-01-03T04:51:37.320Z,28.55
2023-01-03T04:54:11.545Z,20.13
2023-01-03T04:56:40.772Z,26.83
2023-01-03T04:59:08.091Z,20.23
2023-01-03T05:01:35.142Z,18.98
2023-01-03T05:04:05.088Z,23.30
2023-01-03T05:06:35.114Z,17.98
2023-01-03T05:09:02.148Z,20.27
2023-01-03T05:11:28.932Z,20.73
2023-01-03T05:13:55.692Z,20.20
2023-01-03T05:16:25.356Z,19.60
2023-01-03T05:18:53.536Z,22.30
2023-01-03T05:21:43.544Z,23.15
2023-01-03T05:24:31.030Z,17.17
2023-01-03T05:27:00.909Z,20.73
2023-01-03T05:29:29.376Z,22.05
2023-01-03T05:31:57.349Z,18.85
2023-01-03T05:34:25.520Z,19.90
2023-01-03T05:36:52.265Z,16.20
2023-01-03T05:39:19.788Z,25.90
2023-01-03T05:42:02.413Z,24.60
2023-01-03T05:44:34.677Z,21.98
2023-01-03T05:47:03.602Z,24.00
2023-01-03T05:49:30.531Z,19.17
2023-01-03T05:51:57.850Z,26.80
2023-01-03T05:54:25.035Z,24.70
2023-01-03T05:56:51.977Z,30.42
2023-01-03T05:59:19.773Z,19.52
2023-01-03T06:01:50.142Z,28.60
2023-01-03T06:04:19.795Z,24.90
2023-01-03T06:06:47.721Z,28.50
2023-01-03T06:09:17.396Z,23.17
2023-01-03T06:11:44.860Z,22.70
2023-01-03T06:14:14.257Z,26.42
2023-01-03T06:16:59.762Z,25.85
2023-01-03T06:19:26.947Z,32.45
2023-01-03T06:21:53.763Z,29.83
2023-01-03T06:24:23.790Z,25.85
2023-01-03T06:26:50.655Z,30.45
2023-01-03T06:29:17.670Z,30.92
2023-01-03T06:31:44.614Z,29.98
2023-01-03T06:34:11.443Z,28.60
2023-01-03T06:36:38.232Z,28.42
2023-01-03T06:39:05.233Z,29.77
2023-01-03T06:41:32.126Z,30.08
2023-01-03T06:43:58.966Z,30.58
2023-01-03T06:46:48.065Z,53.45
2023-01-03T06:49:44.461Z,28.40
2023-01-03T06:52:33.821Z,29.92
2023-01-03T06:55:01.809Z,23.98
2023-01-03T06:57:28.662Z,28.38
2023-01-03T06:59:55.865Z,30.00
2023-01-03T07:02:22.894Z,30.35
2023-01-03T07:04:49.958Z,28.20
2023-01-03T07:07:18.085Z,37.30
2023-01-03T07:09:44.993Z,32.30
2023-01-03T07:12:31.740Z,29.15
2023-01-03T07:15:01.146Z,29.60
2023-01-03T07:17:28.107Z,31.75
2023-01-03T07:19:59.377Z,28.42
2023-01-03T07:22:27.314Z,30.15
2023-01-03T07:24:54.082Z,25.80
2023-01-03T07:27:21.018Z,25.02
2023-01-03T07:29:47.849Z,21.63
2023-01-03T07:32:14.663Z,26.25
2023-01-03T07:34:41.421Z,28.25
2023-01-03T07:37:08.248Z,32.63
2023-01-03T07:39:35.001Z,20.77
2023-01-03T07:42:20.919Z,23.20
2023-01-03T07:44:50.252Z,31.65
2023-01-03T07:47:18.536Z,30.35
2023-01-03T07:49:45.421Z,29.38
2023-01-03T07:52:12.168Z,28.02
2023-01-03T07:54:40.642Z,26.90
2023-01-03T07:57:07.706Z,25.60
2023-01-03T07:59:34.771Z,30.00
2023-01-03T08:02:01.708Z,28.02
2023-01-03T08:04:30.035Z,26.17
2023-01-03T08:06:58.235Z,31.98
2023-01-03T08:09:43.942Z,30.67
2023-01-03T08:12:31.136Z,33.03
2023-01-03T08:14:58.239Z,28.35
2023-01-03T08:17:25.454Z,31.92
2023-01-03T08:19:52.576Z,27.45
2023-01-03T08:22:19.511Z,36.10
2023-01-03T08:24:46.705Z,27.58
2023-01-03T08:27:13.819Z,29.15
2023-01-03T08:29:40.653Z,29.23
2023-01-03T08:32:07.918Z,29.88
2023-01-03T08:34:38.310Z,30.83
2023-01-03T08:37:10.499Z,30.80
2023-01-03T08:39:43.171Z,33.40
2023-01-03T08:42:13.549Z,27.80
2023-01-03T08:44:41.572Z,30.77
2023-01-03T08:47:09.758Z,38.15
2023-01-03T08:49:37.746Z,35.97
2023-01-03T08:52:05.068Z,35.38
2023-01-03T08:54:34.877Z,29.05
2023-01-03T08:57:01.765Z,37.05
2023-01-03T08:59:28.870Z,32.60
2023-01-03T09:02:02.019Z,38.47
2023-01-03T09:04:29.538Z,32.65
2023-01-03T09:06:56.864Z,41.03
2023-01-03T09:09:23.716Z,42.30
2023-01-03T09:11:50.782Z,37.08
2023-01-03T09:14:17.814Z,38.42
2023-01-03T09:16:49.020Z,36.28
2023-01-03T09:19:18.244Z,34.58
2023-01-03T09:21:45.180Z,38.20
2023-01-03T09:24:14.788Z,36.22
2023-01-03T09:26:47.952Z,34.95
2023-01-03T09:29:20.104Z,40.88
2023-01-03T09:31:51.552Z,40.45
2023-01-03T09:34:19.506Z,32.78
2023-01-03T09:36:46.405Z,39.33
2023-01-03T09:39:14.424Z,40.72
2023-01-03T09:41:42.708Z,29.23
2023-01-03T09:44:10.755Z,35.03
2023-01-03T09:46:38.246Z,33.05
2023-01-03T09:49:07.365Z,35.10
2023-01-03T09:52:00.429Z,35.22
2023-01-03T09:54:52.473Z,31.35
2023-01-03T09:57:50.981Z,29.00
2023-01-03T10:00:47.834Z,30.15
2023-01-03T10:03:50.278Z,26.58
2023-01-03T10:06:32.472Z,29.52
2023-01-03T10:09:28.436Z,31.25
2023-01-03T10:12:04.376Z,29.40
2023-01-03T10:14:49.807Z,25.90
2023-01-03T10:17:41.160Z,30.92
2023-01-03T10:20:33.429Z,26.40
2023-01-03T10:23:09.452Z,29.10
2023-01-03T10:25:44.253Z,24.75
2023-01-03T10:28:32.107Z,31.55
2023-01-03T10:31:29.610Z,27.23
2023-01-03T10:33:56.922Z,19.48
2023-01-03T10:36:24.488Z,27.95
2023-01-03T10:39:09.137Z,28.17
2023-01-03T10:41:49.512Z,25.40
2023-01-03T10:44:28.338Z,23.00
2023-01-03T10:46:59.859Z,25.20
2023-01-03T10:49:34.095Z,26.00
2023-01-03T10:52:15.213Z,22.70
2023-01-03T10:55:01.416Z,24.15
2023-01-03T10:58:04.584Z,21.30
2023-01-03T11:00:37.962Z,20.40
2023-01-03T11:03:16.678Z,14.68
2023-01-03T11:06:07.821Z,17.95
2023-01-03T11:09:04.101Z,12.65
2023-01-03T11:11:36.638Z,12.50
2023-01-03T11:14:09.932Z,10.25
2023-01-03T11:19:40.680Z,11.33
2023-01-03T11:22:35.532Z,13.20
2023-01-03T11:25:12.653Z,15.07
2023-01-03T11:27:54.189Z,18.15
2023-01-03T11:30:48.301Z,13.48
2023-01-03T11:33:37.654Z,20.58
2023-01-03T11:36:14.991Z,20.52
2023-01-03T11:38:59.308Z,14.32
2023-01-03T11:41:46.708Z,14.55
2023-01-03T11:44:32.449Z,12.27
2023-01-03T11:47:30.626Z,17.70
2023-01-03T11:50:16.602Z,14.82
2023-01-03T11:53:27.642Z,17.02
2023-01-03T11:56:08.341Z,17.73
2023-01-03T11:58:38.253Z,12.73
2023-01-03T12:01:50.175Z,12.32
2023-01-03T12:04:33.208Z,11.52
2023-01-03T12:07:47.414Z,10.87
2023-01-03T12:10:26.782Z,13.88
2023-01-03T12:13:29.381Z,9.73
2023-01-03T12:16:09.070Z,13.18
2023-01-03T12:18:56.690Z,9.98
2023-01-03T12:21:32.898Z,13.45
2023-01-03T12:24:41.936Z,9.55
2023-01-03T12:27:21.148Z,8.98
2023-01-03T12:30:03.159Z,10.18
2023-01-03T12:32:51.616Z,11.20
2023-01-03T12:35:26.701Z,9.13
2023-01-03T12:37:57.782Z,10.43
2023-01-03T12:40:43.967Z,8.93
2023-01-03T12:43:14.189Z,8.35
2023-01-03T12:45:47.678Z,8.93
2023-01-03T12:48:30.606Z,10.07
2023-01-03T12:50:57.559Z,11.70
2023-01-03T12:53:47.594Z,13.13
2023-01-03T12:56:23.815Z,7.55
2023-01-03T12:59:09.477Z,10.32
2023-01-03T13:01:45.407Z,7.30
2023-01-03T13:04:33.949Z,7.28
2023-01-03T13:07:07.077Z,7.07
2023-01-03T13:09:38.779Z,9.93
2023-01-03T13:12:19.122Z,10.07
2023-01-03T13:15:14.713Z,5.63
2023-01-03T13:17:52.532Z,7.63
2023-01-03T13:20:32.293Z,11.38
2023-01-03T13:23:00.791Z,6.40
2023-01-03T13:26:06.465Z,7.05
2023-01-03T13:28:38.612Z,5.68
2023-01-03T13:31:17.963Z,12.10
2023-01-03T13:34:34.844Z,9.77
2023-01-03T13:37:07.721Z,6.60
2023-01-03T13:39:57.040Z,10.43
2023-01-03T13:42:39.166Z,6.53
2023-01-03T13:45:15.405Z,7.43
2023-01-03T13:47:48.962Z,7.57
2023-01-03T13:50:31.098Z,5.35
2023-01-03T13:53:10.198Z,7.78
2023-01-03T13:55:38.908Z,8.32
2023-01-03T13:58:24.447Z,8.35
2023-01-03T14:00:55.732Z,10.48
2023-01-03T14:03:39.095Z,6.28
2023-01-03T14:06:41.814Z,6.78
2023-01-03T14:09:56.072Z,13.63
2023-01-03T14:12:50.312Z,14.30
2023-01-03T14:15:26.440Z,9.55
2023-01-03T14:18:02.916Z,9.43
2023-01-03T14:20:35.619Z,7.68
2023-01-03T14:23:48.349Z,7.50
2023-01-03T14:26:08.773Z,8.90
2023-01-03T14:28:35.760Z,12.05
2023-01-03T14:31:06.126Z,14.20
2023-01-03T14:33:40.271Z,8.60
2023-01-03T14:36:19.017Z,9.02
2023-01-03T14:38:55.525Z,14.73
2023-01-03T14:41:35.194Z,10.88
2023-01-03T14:44:04.149Z,8.30
2023-01-03T14:46:35.112Z,11.85
2023-01-03T14:49:06.919Z,10.27
2023-01-03T14:51:35.991Z,13.82
2023-01-03T14:54:07.047Z,10.30
2023-01-03T14:56:34.419Z,8.75
2023-01-03T14:59:09.959Z,12.00
2023-01-03T15:01:40.706Z,10.35
2023-01-03T15:04:17.398Z,10.30
2023-01-03T15:07:11.062Z,8.55
2023-01-03T15:09:40.537Z,8.85
2023-01-03T15:12:08.097Z,7.22
2023-01-03T15:14:39.300Z,8.65
2023-01-03T15:17:16.895Z,13.13
2023-01-03T15:20:02.480Z,11.07
2023-01-03T15:22:40.344Z,8.23
2023-01-03T15:25:24.418Z,11.40
2023-01-03T15:27:53.044Z,9.15
2023-01-03T15:30:27.068Z,17.38
2023-01-03T15:33:02.308Z,8.73
2023-01-03T15:35:41.976Z,8.68
2023-01-03T15:38:36.377Z,10.50
2023-01-03T15:42:19.634Z,8.27
2023-01-03T15:44:44.854Z,15.82
2023-01-03T15:47:18.346Z,11.48
2023-01-03T15:49:49.582Z,13.98
2023-01-03T15:52:25.232Z,12.75
2023-01-03T15:54:54.286Z,9.43
2023-01-03T15:57:29.670Z,8.32
2023-01-03T16:00:00.131Z,12.35
2023-01-03T16:02:27.155Z,9.85
2023-01-03T16:04:54.462Z,7.28
2023-01-03T16:07:23.664Z,7.47
2023-01-03T16:09:50.869Z,6.72
2023-01-03T16:12:30.593Z,10.15
2023-01-03T16:14:57.758Z,11.77
2023-01-03T16:17:28.574Z,10.55
2023-01-03T16:20:01.330Z,11.73
2023-01-03T16:22:35.424Z,8.00
2023-01-03T16:25:05.476Z,13.63
2023-01-03T16:27:32.943Z,9.50
2023-01-03T16:30:02.498Z,15.25
2023-01-03T16:32:30.982Z,10.95
2023-01-03T16:35:07.719Z,10.52
2023-01-03T16:37:35.426Z,8.38
2023-01-03T16:40:03.644Z,11.68
2023-01-03T16:42:33.719Z,7.82
2023-01-03T16:45:03.977Z,9.40
2023-01-03T16:47:33.991Z,6.78
2023-01-03T16:50:06.193Z,10.88
2023-01-03T16:52:39.495Z,9.30
2023-01-03T16:55:24.172Z,6.80
2023-01-03T16:57:54.492Z,13.70
2023-01-03T17:00:29.911Z,9.65
2023-01-03T17:03:00.411Z,8.30
2023-01-03T17:05:33.644Z,10.40
2023-01-03T17:08:06.033Z,12.88
2023-01-03T17:10:37.589Z,12.32
2023-01-03T17:13:12.370Z,11.05
2023-01-03T17:15:41.765Z,11.10
2023-01-03T17:18:22.167Z,10.80
2023-01-03T17:20:59.933Z,8.35
2023-01-03T17:23:28.945Z,9.40
2023-01-03T17:25:58.892Z,12.73
2023-01-03T17:28:25.964Z,6.35
2023-01-03T17:30:57.492Z,8.10
2023-01-03T17:33:33.833Z,14.95
2023-01-03T17:36:14.149Z,7.57
2023-01-03T17:38:48.141Z,11.52
2023-01-03T17:41:47.598Z,11.65
2023-01-03T17:44:15.066Z,8.85
2023-01-03T17:47:00.623Z,11.55
2023-01-03T17:49:30.138Z,11.55
2023-01-03T17:52:01.948Z,10.13
2023-01-03T17:54:36.426Z,8.75
2023-01-03T17:57:05.300Z,13.20
2023-01-03T17:59:32.577Z,10.95
2023-01-03T18:02:01.939Z,13.27
2023-01-03T18:04:50.329Z,10.95
2023-01-03T18:07:23.956Z,9.45
2023-01-03T18:09:55.594Z,6.55
2023-01-03T18:12:46.973Z,16.98
2023-01-03T18:15:21.990Z,6.22
2023-01-03T18:17:54.191Z,8.73
2023-01-03T18:20:22.480Z,11.38
2023-01-03T18:22:49.513Z,6.50
2023-01-03T18:25:25.469Z,12.15
2023-01-03T18:28:01.121Z,6.82
2023-01-03T18:30:30.959Z,10.25
2023-01-03T18:33:01.143Z,7.15
2023-01-03T18:35:34.077Z,6.70
2023-01-03T18:38:06.107Z,10.23
2023-01-03T18:40:33.240Z,8.93
2023-01-03T18:43:15.695Z,12.43
2023-01-03T18:45:44.033Z,9.00
2023-01-03T18:48:15.865Z,12.90
2023-01-03T18:50:55.671Z,5.60
2023-01-03T18:53:28.532Z,9.85
2023-01-03T18:55:56.228Z,8.55
2023-01-03T18:58:37.498Z,6.68
2023-01-03T19:01:06.054Z,11.25
2023-01-03T19:03:35.420Z,9.05
2023-01-03T19:06:13.821Z,10.90
2023-01-03T19:08:45.863Z,5.97
2023-01-03T19:11:19.411Z,10.95
2023-01-03T19:13:54.522Z,10.38
2023-01-03T19:16:27.010Z,7.47
2023-01-03T19:18:58.273Z,4.82
2023-01-03T19:21:31.361Z,8.63
2023-01-03T19:24:19.993Z,11.88
2023-01-03T19:26:53.710Z,14.02
2023-01-03T19:29:24.394Z,4.90
2023-01-03T19:31:55.461Z,10.07
2023-01-03T19:34:26.995Z,8.20
2023-01-03T19:36:57.362Z,5.90
2023-01-03T19:39:27.284Z,11.27
2023-01-03T19:42:21.146Z,7.78
2023-01-03T19:44:51.351Z,7.07
2023-01-03T19:47:25.945Z,5.15
2023-01-03T19:49:54.983Z,8.73
2023-01-03T19:52:24.019Z,10.80
2023-01-03T19:54:50.925Z,9.57
2023-01-03T19:57:37.353Z,11.77
2023-01-03T20:00:05.627Z,11.10
2023-01-03T20:02:55.761Z,6.65
2023-01-03T20:05:35.357Z,7.43
2023-01-03T20:08:12.136Z,11.80
2023-01-03T20:10:44.746Z,7.32
2023-01-03T20:13:20.435Z,4.15
2023-01-03T20:15:49.407Z,10.73
2023-01-03T20:18:31.377Z,8.80
2023-01-03T20:21:06.876Z,13.18
2023-01-03T20:23:48.514Z,8.77
2023-01-03T20:26:25.109Z,7.90
2023-01-03T20:28:54.263Z,7.75
2023-01-03T20:31:24.436Z,5.15
2023-01-03T20:33:53.384Z,7.20
2023-01-03T20:36:25.594Z,7.22
2023-01-03T20:38:57.789Z,10.70
2023-01-03T20:41:37.429Z,6.20
2023-01-03T20:44:09.113Z,10.32
2023-01-03T20:46:38.832Z,7.70
2023-01-03T20:49:18.195Z,8.63
2023-01-03T20:51:46.010Z,11.77
2023-01-03T20:54:12.799Z,9.38
2023-01-03T20:56:41.534Z,5.80
2023-01-03T20:59:17.009Z,9.48
2023-01-03T21:01:45.504Z,9.60
2023-01-03T21:04:18.482Z,12.25
2023-01-03T21:06:48.407Z,9.85
2023-01-03T21:09:15.158Z,11.25
2023-01-03T21:11:45.000Z,7.43
2023-01-03T21:14:12.008Z,8.85
2023-01-03T21:16:49.425Z,9.30
2023-01-03T21:19:17.856Z,10.57
2023-01-03T21:21:50.346Z,11.52
2023-01-03T21:24:26.734Z,12.90
2023-01-03T21:26:55.104Z,6.78
2023-01-03T21:29:22.130Z,8.85
2023-01-03T21:31:55.287Z,12.27
2023-01-03T21:34:23.546Z,10.38
2023-01-03T21:36:50.868Z,10.95
2023-01-03T21:39:18.310Z,5.63
2023-01-03T21:42:04.542Z,5.75
2023-01-03T21:44:31.691Z,6.60
2023-01-03T21:46:58.568Z,3.88
2023-01-03T21:49:25.461Z,10.48
2023-01-03T21:51:53.931Z,7.15
2023-01-03T21:54:20.881Z,7.70
2023-01-03T21:56:48.214Z,11.05
2023-01-03T21:59:16.834Z,5.32
2023-01-03T22:02:08.251Z,12.57
2023-01-03T22:04:35.293Z,12.43
2023-01-03T22:07:02.620Z,9.48
2023-01-03T22:09:49.839Z,9.05
2023-01-03T22:12:18.298Z,8.40
2023-01-03T22:14:47.283Z,8.98
2023-01-03T22:17:15.614Z,6.32
2023-01-03T22:19:45.968Z,7.88
2023-01-03T22:22:13.898Z,11.10
2023-01-03T22:24:40.944Z,7.32
2023-01-03T22:27:08.986Z,5.72
2023-01-03T22:29:38.642Z,9.40
2023-01-03T22:32:06.103Z,10.77
2023-01-03T22:34:35.119Z,7.00
2023-01-03T22:37:10.335Z,4.65
2023-01-03T22:39:37.498Z,7.70
2023-01-03T22:42:04.945Z,8.77
2023-01-03T22:44:31.955Z,6.07
2023-01-03T22:47:02.183Z,6.20
2023-01-03T22:49:31.303Z,8.20
2023-01-03T22:51:58.814Z,6.93
2023-01-03T22:54:35.376Z,5.72
2023-01-03T22:57:03.294Z,9.38
2023-01-03T22:59:30.744Z,6.57
2023-01-03T23:01:58.543Z,9.38
2023-01-03T23:04:28.446Z,6.10
2023-01-03T23:06:56.023Z,10.85
2023-01-03T23:09:25.625Z,6.10
2023-01-03T23:12:11.235Z,11.13
2023-01-03T23:14:38.231Z,6.82
2023-01-03T23:17:28.136Z,14.10
2023-01-03T23:19:57.316Z,9.43
2023-01-03T23:22:26.338Z,5.43
2023-01-03T23:31:21.319Z,8.93
2023-01-03T23:34:02.779Z,7.00
2023-01-03T23:36:30.374Z,10.63
2023-01-03T23:38:58.563Z,9.07
2023-01-03T23:41:26.224Z,6.35
2023-01-03T23:43:56.166Z,4.82
2023-01-03T23:46:42.934Z,5.50
2023-01-03T23:49:14.069Z,5.10
2023-01-03T23:51:45.359Z,10.07
2023-01-03T23:54:15.487Z,7.18
2023-01-03T23:56:45.595Z,5.10
2023-01-03T23:59:19.901Z,8.05
